createdAt,value
2019-02-20T00:01:50.537Z,3.63
2019-02-20T00:04:38.413Z,3.70
2019-02-20T00:07:26.316Z,3.47
2019-02-20T00:10:14.195Z,3.27
2019-02-20T00:13:02.095Z,4.00
2019-02-20T00:15:49.995Z,4.10
2019-02-20T00:18:37.872Z,3.90
2019-02-20T00:21:25.774Z,4.00
2019-02-20T00:24:06.150Z,4.57
2019-02-20T00:26:46.914Z,3.50
2019-02-20T00:29:27.834Z,3.70
2019-02-20T00:32:09.131Z,3.73
2019-02-20T00:34:50.068Z,3.77
2019-02-20T00:37:30.637Z,3.30
2019-02-20T00:40:11.225Z,3.50
2019-02-20T00:42:52.039Z,4.33
2019-02-20T00:45:36.880Z,3.67
2019-02-20T00:48:18.921Z,3.47
2019-02-20T00:51:18.958Z,3.73
2019-02-20T00:54:01.815Z,3.77
2019-02-20T00:56:42.742Z,3.87
2019-02-20T00:59:23.641Z,3.50
2019-02-20T01:02:04.166Z,3.90
2019-02-20T01:04:44.939Z,3.67
2019-02-20T01:10:33.402Z,3.83
2019-02-20T01:13:14.081Z,4.20
2019-02-20T01:19:14.015Z,4.47
2019-02-20T01:21:54.926Z,4.17
2019-02-20T01:24:35.539Z,4.30
2019-02-20T01:30:21.307Z,4.67
2019-02-20T01:33:02.585Z,4.67
2019-02-20T01:35:43.533Z,4.40
2019-02-20T01:38:24.483Z,5.03
2019-02-20T01:41:04.881Z,5.23
2019-02-20T01:43:45.675Z,4.73
2019-02-20T01:46:26.104Z,5.30
2019-02-20T01:49:06.781Z,4.53
2019-02-20T01:51:47.626Z,5.93
2019-02-20T01:54:28.491Z,5.23
2019-02-20T01:57:09.049Z,4.87
2019-02-20T01:59:49.678Z,4.87
2019-02-20T02:02:30.105Z,4.87
2019-02-20T02:05:15.245Z,4.77
2019-02-20T02:07:53.640Z,5.27
2019-02-20T02:10:34.051Z,5.60
2019-02-20T02:13:14.642Z,5.03
2019-02-20T02:15:55.085Z,4.47
2019-02-20T02:18:36.699Z,4.40
2019-02-20T02:21:18.244Z,4.63
2019-02-20T02:23:59.035Z,5.00
2019-02-20T02:26:39.339Z,5.27
2019-02-20T02:29:19.706Z,4.57
2019-02-20T02:32:00.084Z,4.50
2019-02-20T02:34:40.781Z,4.83
2019-02-20T02:37:21.450Z,4.23
2019-02-20T02:40:02.220Z,4.73
2019-02-20T02:42:42.699Z,4.03
2019-02-20T02:45:23.605Z,4.33
2019-02-20T02:48:04.150Z,4.60
2019-02-20T02:50:44.829Z,4.60
2019-02-20T02:53:30.668Z,4.43
2019-02-20T02:56:08.058Z,4.77
2019-02-20T02:58:48.963Z,4.53
2019-02-20T03:01:29.404Z,4.57
2019-02-20T03:07:18.232Z,4.60
2019-02-20T03:09:59.323Z,5.57
2019-02-20T03:12:39.863Z,4.93
2019-02-20T03:15:20.807Z,4.97
2019-02-20T03:18:01.370Z,5.20
2019-02-20T03:20:41.916Z,4.77
2019-02-20T03:23:22.375Z,5.07
2019-02-20T03:26:02.982Z,5.07
2019-02-20T03:28:43.825Z,5.10
2019-02-20T03:31:24.477Z,4.57
2019-02-20T03:34:08.503Z,5.20
2019-02-20T03:36:47.690Z,5.27
2019-02-20T03:39:28.614Z,5.23
2019-02-20T03:45:28.342Z,4.90
2019-02-20T03:48:08.985Z,5.33
2019-02-20T03:53:36.100Z,5.00
2019-02-20T03:56:17.008Z,5.53
2019-02-20T03:58:57.762Z,4.70
2019-02-20T04:01:38.986Z,5.63
2019-02-20T04:04:19.856Z,5.23
2019-02-20T04:07:00.452Z,5.70
2019-02-20T04:09:40.915Z,5.40
2019-02-20T04:12:21.574Z,5.33
2019-02-20T04:15:02.575Z,5.57
2019-02-20T04:17:43.405Z,5.27
2019-02-20T04:20:24.190Z,4.97
2019-02-20T04:23:04.655Z,5.17
2019-02-20T04:25:45.508Z,5.03
2019-02-20T04:28:14.058Z,5.40
2019-02-20T04:30:42.632Z,5.03
2019-02-20T04:36:19.305Z,5.50
2019-02-20T04:39:07.177Z,5.77
2019-02-20T04:41:55.274Z,6.53
2019-02-20T04:44:43.179Z,5.70
2019-02-20T04:47:31.057Z,7.03
2019-02-20T04:50:18.951Z,6.60
2019-02-20T04:53:06.830Z,6.90
2019-02-20T04:55:54.735Z,6.20
2019-02-20T04:58:42.784Z,6.40
2019-02-20T05:01:30.688Z,6.20
2019-02-20T05:04:18.559Z,6.67
2019-02-20T05:07:06.463Z,5.80
2019-02-20T05:09:54.364Z,6.73
2019-02-20T05:12:42.243Z,5.63
2019-02-20T05:15:30.135Z,6.57
2019-02-20T05:18:18.011Z,6.83
2019-02-20T05:21:05.906Z,6.87
2019-02-20T05:23:46.964Z,7.07
2019-02-20T05:26:27.876Z,6.67
2019-02-20T05:29:08.418Z,7.23
2019-02-20T05:31:49.356Z,7.20
2019-02-20T05:34:29.880Z,7.30
2019-02-20T05:37:10.400Z,7.30
2019-02-20T05:39:38.935Z,6.70
2019-02-20T05:42:26.844Z,7.53
2019-02-20T05:45:14.759Z,7.13
2019-02-20T05:48:02.643Z,7.83
2019-02-20T05:50:50.844Z,7.47
2019-02-20T05:53:38.792Z,7.77
2019-02-20T05:56:26.940Z,8.80
2019-02-20T05:59:14.842Z,8.47
2019-02-20T06:02:02.757Z,8.43
2019-02-20T06:04:51.046Z,7.73
2019-02-20T06:07:38.962Z,9.20
2019-02-20T06:10:26.847Z,8.17
2019-02-20T06:13:14.734Z,8.40
2019-02-20T06:16:02.643Z,8.13
2019-02-20T06:18:50.524Z,8.63
2019-02-20T06:21:38.434Z,8.73
2019-02-20T06:24:19.550Z,8.63
2019-02-20T06:27:00.089Z,9.03
2019-02-20T06:29:41.066Z,8.63
2019-02-20T06:32:23.990Z,9.17
2019-02-20T06:35:04.626Z,9.57
2019-02-20T06:37:45.615Z,9.27
2019-02-20T06:40:26.259Z,9.20
2019-02-20T06:43:07.300Z,9.53
2019-02-20T06:45:49.689Z,10.03
2019-02-20T06:48:30.463Z,9.70
2019-02-20T06:51:11.052Z,9.87
2019-02-20T06:53:51.746Z,9.53
2019-02-20T06:56:32.719Z,10.37
2019-02-20T06:59:13.373Z,9.87
2019-02-20T07:01:54.254Z,9.63
2019-02-20T07:04:34.705Z,9.70
2019-02-20T07:07:15.423Z,10.27
2019-02-20T07:09:56.071Z,9.93
2019-02-20T07:12:36.758Z,10.67
2019-02-20T07:15:17.662Z,10.17
2019-02-20T07:17:58.163Z,10.10
2019-02-20T07:20:39.073Z,10.27
2019-02-20T07:23:19.807Z,10.73
2019-02-20T07:26:00.359Z,9.73
2019-02-20T07:28:41.222Z,10.47
2019-02-20T07:31:21.890Z,10.67
2019-02-20T07:34:05.260Z,9.57
2019-02-20T07:36:45.442Z,9.97
2019-02-20T07:39:26.125Z,10.03
2019-02-20T07:42:06.915Z,10.20
2019-02-20T07:44:47.434Z,10.27
2019-02-20T07:47:27.852Z,10.00
2019-02-20T07:50:08.231Z,10.10
2019-02-20T07:52:48.938Z,9.20
2019-02-20T07:55:29.581Z,10.23
2019-02-20T07:58:10.112Z,8.80
2019-02-20T08:00:50.607Z,9.40
2019-02-20T08:03:31.615Z,8.80
2019-02-20T08:06:12.498Z,9.33
2019-02-20T08:08:53.132Z,9.53
2019-02-20T08:11:33.747Z,9.43
2019-02-20T08:14:14.738Z,9.80
2019-02-20T08:16:55.170Z,9.93
2019-02-20T08:19:35.598Z,9.70
2019-02-20T08:22:16.494Z,9.27
2019-02-20T08:24:57.183Z,9.53
2019-02-20T08:27:37.881Z,8.73
2019-02-20T08:30:18.894Z,8.90
2019-02-20T08:32:59.798Z,9.33
2019-02-20T08:35:40.198Z,9.37
2019-02-20T08:38:21.067Z,9.33
2019-02-20T08:41:01.611Z,8.83
2019-02-20T08:43:42.279Z,8.80
2019-02-20T08:46:22.571Z,9.53
2019-02-20T08:49:03.330Z,9.17
2019-02-20T08:51:44.148Z,9.20
2019-02-20T08:54:24.791Z,9.90
2019-02-20T08:57:05.643Z,8.43
2019-02-20T08:59:46.510Z,9.03
2019-02-20T09:02:26.778Z,8.73
2019-02-20T09:05:07.548Z,8.70
2019-02-20T09:07:47.966Z,8.90
2019-02-20T09:10:28.522Z,8.77
2019-02-20T09:13:09.835Z,9.13
2019-02-20T09:15:50.380Z,9.30
2019-02-20T09:18:30.803Z,9.03
2019-02-20T09:21:11.651Z,9.03
2019-02-20T09:23:52.522Z,8.80
2019-02-20T09:26:33.183Z,8.57
2019-02-20T09:29:13.987Z,8.63
2019-02-20T09:31:54.726Z,8.90
2019-02-20T09:34:35.670Z,7.97
2019-02-20T09:37:16.639Z,8.47
2019-02-20T09:39:57.073Z,8.60
2019-02-20T09:42:38.017Z,8.33
2019-02-20T09:45:18.701Z,9.10
2019-02-20T09:47:59.427Z,9.00
2019-02-20T09:50:40.170Z,8.80
2019-02-20T09:53:20.771Z,7.73
2019-02-20T09:56:01.341Z,8.57
2019-02-20T10:01:50.254Z,8.70
2019-02-20T10:04:31.155Z,8.30
2019-02-20T10:07:11.883Z,8.47
2019-02-20T10:09:52.482Z,8.97
2019-02-20T10:12:33.083Z,7.70
2019-02-20T10:15:13.557Z,8.23
2019-02-20T10:17:53.922Z,7.67
2019-02-20T10:20:34.349Z,7.97
2019-02-20T10:23:15.063Z,7.53
2019-02-20T10:26:00.762Z,7.00
2019-02-20T10:28:37.879Z,6.47
2019-02-20T10:31:18.431Z,7.20
2019-02-20T10:33:58.774Z,6.67
2019-02-20T10:36:39.407Z,6.90
2019-02-20T10:39:19.754Z,6.67
2019-02-20T10:42:00.588Z,6.67
2019-02-20T10:44:41.242Z,6.60
2019-02-20T10:47:21.888Z,6.77
2019-02-20T10:50:02.307Z,6.40
2019-02-20T10:52:43.350Z,6.27
2019-02-20T10:55:24.050Z,6.30
2019-02-20T10:58:04.873Z,6.00
2019-02-20T11:00:45.562Z,5.73
2019-02-20T11:03:26.363Z,5.87
2019-02-20T11:06:07.002Z,5.83
2019-02-20T11:08:47.650Z,5.40
2019-02-20T11:11:28.014Z,5.53
2019-02-20T11:14:08.286Z,5.47
2019-02-20T11:16:49.099Z,5.50
2019-02-20T11:19:29.806Z,5.07
2019-02-20T11:22:10.312Z,5.00
2019-02-20T11:24:51.294Z,5.43
2019-02-20T11:27:32.081Z,5.07
2019-02-20T11:30:12.786Z,5.80
2019-02-20T11:32:53.887Z,5.63
2019-02-20T11:35:34.583Z,5.57
2019-02-20T11:38:15.308Z,5.60
2019-02-20T11:40:56.253Z,5.47
2019-02-20T11:43:37.051Z,4.87
2019-02-20T11:46:18.058Z,5.10
2019-02-20T11:48:58.724Z,5.23
2019-02-20T11:51:39.654Z,4.70
2019-02-20T11:54:20.474Z,5.23
2019-02-20T11:57:01.114Z,5.40
2019-02-20T11:59:41.556Z,5.50
2019-02-20T12:02:22.070Z,5.20
2019-02-20T12:05:02.572Z,4.83
2019-02-20T12:07:43.234Z,4.83
2019-02-20T12:10:23.802Z,4.67
2019-02-20T12:13:04.271Z,5.10
2019-02-20T12:15:44.767Z,4.97
2019-02-20T12:18:25.242Z,4.90
2019-02-20T12:21:06.218Z,4.77
2019-02-20T12:23:47.111Z,4.67
2019-02-20T12:26:34.874Z,4.40
2019-02-20T12:29:11.267Z,3.90
2019-02-20T12:31:52.719Z,4.00
2019-02-20T12:34:33.806Z,3.90
2019-02-20T12:37:14.496Z,3.77
2019-02-20T12:39:55.356Z,4.27
2019-02-20T12:42:36.379Z,3.87
2019-02-20T12:45:17.027Z,4.10
2019-02-20T12:47:57.738Z,3.73
2019-02-20T12:50:38.788Z,3.50
2019-02-20T12:53:19.734Z,3.53
2019-02-20T12:56:00.326Z,3.57
2019-02-20T12:58:41.294Z,4.03
2019-02-20T13:01:22.031Z,3.40
2019-02-20T13:04:02.528Z,3.43
2019-02-20T13:06:43.680Z,3.57
2019-02-20T13:09:25.184Z,3.80
2019-02-20T13:12:05.876Z,3.87
2019-02-20T13:14:46.643Z,3.73
2019-02-20T13:17:27.538Z,3.33
2019-02-20T13:20:08.378Z,3.53
2019-02-20T13:22:48.984Z,3.80
2019-02-20T13:25:29.525Z,3.37
2019-02-20T13:28:10.113Z,3.33
2019-02-20T13:30:51.046Z,3.80
2019-02-20T13:33:31.774Z,3.83
2019-02-20T13:36:12.998Z,3.47
2019-02-20T13:38:53.643Z,4.33
2019-02-20T13:41:34.149Z,3.60
2019-02-20T13:44:15.063Z,3.83
2019-02-20T13:46:55.623Z,3.53
2019-02-20T13:49:36.520Z,12.87
2019-02-20T13:52:17.302Z,4.30
2019-02-20T13:54:58.069Z,4.03
2019-02-20T13:57:38.916Z,4.23
2019-02-20T14:00:19.635Z,3.83
2019-02-20T14:03:00.363Z,4.03
2019-02-20T14:05:40.835Z,4.10
2019-02-20T14:08:21.394Z,4.40
2019-02-20T14:11:02.327Z,4.33
2019-02-20T14:13:43.616Z,4.07
2019-02-20T14:16:24.353Z,4.83
2019-02-20T14:19:04.899Z,3.80
2019-02-20T14:21:46.356Z,4.27
2019-02-20T14:27:32.570Z,4.13
2019-02-20T14:30:13.047Z,4.00
2019-02-20T14:32:53.942Z,4.33
2019-02-20T14:35:34.586Z,3.70
2019-02-20T14:38:15.051Z,4.53
2019-02-20T14:40:55.766Z,4.20
2019-02-20T14:43:37.423Z,4.10
2019-02-20T14:46:17.810Z,3.70
2019-02-20T14:48:58.406Z,3.30
2019-02-20T14:51:39.363Z,3.50
2019-02-20T14:54:19.772Z,3.40
2019-02-20T14:57:00.423Z,3.30
2019-02-20T14:59:41.318Z,3.50
2019-02-20T15:02:22.139Z,3.70
2019-02-20T15:05:03.137Z,3.93
2019-02-20T15:07:43.623Z,3.20
2019-02-20T15:10:24.239Z,3.77
2019-02-20T15:13:04.590Z,4.00
2019-02-20T15:15:47.275Z,4.23
2019-02-20T15:18:28.070Z,3.93
2019-02-20T15:21:08.775Z,3.57
2019-02-20T15:23:49.299Z,3.83
2019-02-20T15:26:30.235Z,4.50
2019-02-20T15:29:11.283Z,4.60
2019-02-20T15:31:52.045Z,4.50
2019-02-20T15:34:33.006Z,5.17
2019-02-20T15:37:14.061Z,5.13
2019-02-20T15:39:54.596Z,5.87
2019-02-20T15:42:35.027Z,5.50
2019-02-20T15:45:15.522Z,5.70
2019-02-20T15:47:55.802Z,5.70
2019-02-20T15:50:36.382Z,6.00
2019-02-20T15:53:16.875Z,6.00
2019-02-20T15:55:57.311Z,6.60
2019-02-20T15:58:37.598Z,6.67
2019-02-20T16:01:18.204Z,7.23
2019-02-20T16:03:58.694Z,7.03
2019-02-20T16:06:39.544Z,7.10
2019-02-20T16:09:20.047Z,7.80
2019-02-20T16:12:00.674Z,7.97
2019-02-20T16:14:42.195Z,8.00
2019-02-20T16:17:23.296Z,8.53
2019-02-20T16:20:03.859Z,9.07
2019-02-20T16:22:44.705Z,8.67
2019-02-20T16:25:25.475Z,9.07
2019-02-20T16:28:06.159Z,9.63
2019-02-20T16:30:46.870Z,10.00
2019-02-20T16:33:27.658Z,9.13
2019-02-20T16:36:08.298Z,9.50
2019-02-20T16:38:49.395Z,9.73
2019-02-20T16:41:29.987Z,10.40
2019-02-20T16:44:10.812Z,9.17
2019-02-20T16:46:51.887Z,9.97
2019-02-20T16:49:32.557Z,10.23
2019-02-20T16:52:12.934Z,10.00
2019-02-20T16:54:55.025Z,10.03
2019-02-20T16:57:36.239Z,9.60
2019-02-20T17:00:17.919Z,9.53
2019-02-20T17:02:58.799Z,10.30
2019-02-20T17:05:39.643Z,9.93
2019-02-20T17:08:20.343Z,10.63
2019-02-20T17:11:01.235Z,75.43
2019-02-20T17:13:42.203Z,30.77
2019-02-20T17:16:22.798Z,13.07
2019-02-20T17:19:03.439Z,13.90
2019-02-20T17:21:46.000Z,23.07
2019-02-20T17:24:27.205Z,18.30
2019-02-20T17:27:07.830Z,20.93
2019-02-20T17:29:48.666Z,13.73
2019-02-20T17:32:29.358Z,11.33
2019-02-20T17:35:09.935Z,11.50
2019-02-20T17:37:50.795Z,12.30
2019-02-20T17:40:31.690Z,15.30
2019-02-20T17:43:12.595Z,15.63
2019-02-20T17:45:53.332Z,11.27
2019-02-20T17:48:34.190Z,10.70
2019-02-20T17:51:14.907Z,11.30
2019-02-20T17:53:55.780Z,11.10
2019-02-20T17:56:36.422Z,11.20
2019-02-20T17:59:17.445Z,11.53
2019-02-20T18:01:58.555Z,11.77
2019-02-20T18:04:38.865Z,11.97
2019-02-20T18:10:27.932Z,11.57
2019-02-20T18:13:08.879Z,12.03
2019-02-20T18:15:49.391Z,11.80
2019-02-20T18:18:30.111Z,12.27
2019-02-20T18:21:10.656Z,11.63
2019-02-20T18:23:51.062Z,11.80
2019-02-20T18:26:31.882Z,12.13
2019-02-20T18:29:12.727Z,11.40
2019-02-20T18:31:53.536Z,11.80
2019-02-20T18:34:34.438Z,10.80
2019-02-20T18:37:15.142Z,11.87
2019-02-20T18:39:56.115Z,12.87
2019-02-20T18:42:36.926Z,12.50
2019-02-20T18:45:18.028Z,12.83
2019-02-20T18:47:58.707Z,12.50
2019-02-20T18:50:39.609Z,12.63
2019-02-20T18:53:20.458Z,12.97
2019-02-20T18:56:01.244Z,12.13
2019-02-20T18:58:41.555Z,12.20
2019-02-20T19:01:22.152Z,12.07
2019-02-20T19:04:02.940Z,12.67
2019-02-20T19:06:44.163Z,11.97
2019-02-20T19:09:25.066Z,13.07
2019-02-20T19:12:05.610Z,11.40
2019-02-20T19:14:46.102Z,12.07
2019-02-20T19:17:26.830Z,12.20
2019-02-20T19:20:07.323Z,11.93
2019-02-20T19:22:48.276Z,11.33
2019-02-20T19:25:28.790Z,11.03
2019-02-20T19:28:09.727Z,11.73
2019-02-20T19:30:50.291Z,11.80
2019-02-20T19:33:31.233Z,11.70
2019-02-20T19:36:13.156Z,11.30
2019-02-20T19:38:54.440Z,12.30
2019-02-20T19:41:35.069Z,10.93
2019-02-20T19:44:16.036Z,11.27
2019-02-20T19:46:56.749Z,11.37
2019-02-20T19:49:37.496Z,11.30
2019-02-20T19:52:18.640Z,11.03
2019-02-20T19:55:01.696Z,11.27
2019-02-20T19:57:42.257Z,11.43
2019-02-20T20:00:23.094Z,11.63
2019-02-20T20:03:03.900Z,12.10
2019-02-20T20:05:44.726Z,12.03
2019-02-20T20:08:25.475Z,11.87
2019-02-20T20:11:05.962Z,11.90
2019-02-20T20:13:46.590Z,11.33
2019-02-20T20:16:27.202Z,11.23
2019-02-20T20:19:08.160Z,11.83
2019-02-20T20:21:49.638Z,11.13
2019-02-20T20:24:30.621Z,11.10
2019-02-20T20:27:11.300Z,11.30
2019-02-20T20:30:11.061Z,10.60
2019-02-20T20:39:15.534Z,10.40
2019-02-20T20:41:56.439Z,10.87
2019-02-20T20:44:37.226Z,11.50
2019-02-20T20:47:17.959Z,11.07
2019-02-20T20:53:06.639Z,12.00
2019-02-20T20:55:47.763Z,11.67
2019-02-20T21:01:47.808Z,11.77
2019-02-20T21:07:33.486Z,11.80
2019-02-20T21:10:14.397Z,11.67
2019-02-20T21:16:46.295Z,11.17
2019-02-20T21:19:52.229Z,11.20
2019-02-20T21:22:33.057Z,11.70
2019-02-20T21:25:14.593Z,11.80
2019-02-20T21:28:22.011Z,11.67
2019-02-20T21:31:42.594Z,12.40
2019-02-20T21:34:40.139Z,12.00
2019-02-20T21:37:47.907Z,12.23
2019-02-20T21:40:58.717Z,12.77
2019-02-20T21:44:06.290Z,11.90
2019-02-20T21:47:15.142Z,11.03
2019-02-20T21:50:22.414Z,11.10
2019-02-20T21:53:29.614Z,11.67
2019-02-20T21:56:36.842Z,11.77
2019-02-20T21:59:44.084Z,11.73
2019-02-20T22:02:52.686Z,11.57
2019-02-20T22:06:01.321Z,11.50
2019-02-20T22:09:08.525Z,11.63
2019-02-20T22:12:15.757Z,10.93
2019-02-20T22:15:22.991Z,10.67
2019-02-20T22:18:30.203Z,10.83
2019-02-20T22:21:38.849Z,10.07
2019-02-20T22:24:19.547Z,10.23
2019-02-20T22:27:00.340Z,10.67
2019-02-20T22:30:08.961Z,9.97
2019-02-20T22:33:17.563Z,10.17
2019-02-20T22:36:24.863Z,10.67
2019-02-20T22:39:32.066Z,10.77
2019-02-20T22:42:39.298Z,11.13
2019-02-20T22:45:46.532Z,10.40
2019-02-20T22:48:53.752Z,10.87
2019-02-20T22:52:02.383Z,9.73
2019-02-20T22:55:09.587Z,10.53
2019-02-20T22:58:18.293Z,10.53
2019-02-20T23:01:25.522Z,10.33
2019-02-20T23:08:18.031Z,10.00
2019-02-20T23:11:25.255Z,9.57
2019-02-20T23:14:32.462Z,10.23
2019-02-20T23:17:20.368Z,10.57
2019-02-20T23:20:08.521Z,10.57
2019-02-20T23:22:49.391Z,9.97
2019-02-20T23:25:29.917Z,10.73
2019-02-20T23:28:10.818Z,11.60
2019-02-20T23:30:51.570Z,11.80
2019-02-20T23:33:32.214Z,11.17
2019-02-20T23:36:12.900Z,11.03
2019-02-20T23:38:53.495Z,11.33
2019-02-20T23:41:34.154Z,11.03
2019-02-20T23:44:14.915Z,11.07
2019-02-20T23:46:55.632Z,11.53
2019-02-20T23:49:36.582Z,11.50
2019-02-20T23:52:17.434Z,11.20
2019-02-20T23:54:58.432Z,11.40
2019-02-20T23:57:39.442Z,11.73
